sensor_id;sensor_type;location;lat;lon;timestamp;P1;durP1;ratioP1;P2;durP2;ratioP2
38609;SDS011;24367;51.640;9.566;2023-05-27T00:00:14;8.88;;;6.32;;
38609;SDS011;24367;51.640;9.566;2023-05-27T00:02:41;8.25;;;5.50;;
38609;SDS011;24367;51.640;9.566;2023-05-27T00:05:08;8.52;;;6.10;;
38609;SDS011;24367;51.640;9.566;2023-05-27T00:07:34;8.20;;;5.88;;
38609;SDS011;24367;51.640;9.566;2023-05-27T00:10:02;7.80;;;5.72;;
38609;SDS011;24367;51.640;9.566;2023-05-27T00:12:28;8.23;;;5.72;;
38609;SDS011;24367;51.640;9.566;2023-05-27T00:14:55;8.07;;;5.93;;
38609;SDS011;24367;51.640;9.566;2023-05-27T00:17:21;8.20;;;5.93;;
38609;SDS011;24367;51.640;9.566;2023-05-27T00:19:48;7.18;;;5.80;;
38609;SDS011;24367;51.640;9.566;2023-05-27T00:22:14;7.65;;;5.68;;
38609;SDS011;24367;51.640;9.566;2023-05-27T00:24:41;8.90;;;5.82;;
38609;SDS011;24367;51.640;9.566;2023-05-27T00:27:09;7.38;;;5.35;;
38609;SDS011;24367;51.640;9.566;2023-05-27T00:29:36;8.23;;;5.57;;
38609;SDS011;24367;51.640;9.566;2023-05-27T00:32:02;7.95;;;5.70;;
38609;SDS011;24367;51.640;9.566;2023-05-27T00:34:29;9.30;;;5.82;;
38609;SDS011;24367;51.640;9.566;2023-05-27T00:36:56;7.88;;;5.20;;
38609;SDS011;24367;51.640;9.566;2023-05-27T00:39:23;7.60;;;5.25;;
38609;SDS011;24367;51.640;9.566;2023-05-27T00:41:49;8.00;;;5.32;;
38609;SDS011;24367;51.640;9.566;2023-05-27T00:44:17;6.88;;;5.28;;
38609;SDS011;24367;51.640;9.566;2023-05-27T00:46:44;7.10;;;5.30;;
38609;SDS011;24367;51.640;9.566;2023-05-27T00:49:11;7.43;;;4.93;;
38609;SDS011;24367;51.640;9.566;2023-05-27T00:51:38;8.15;;;4.55;;
38609;SDS011;24367;51.640;9.566;2023-05-27T00:54:04;7.28;;;4.97;;
38609;SDS011;24367;51.640;9.566;2023-05-27T00:56:31;7.85;;;5.60;;
38609;SDS011;24367;51.640;9.566;2023-05-27T00:58:58;6.72;;;4.95;;
38609;SDS011;24367;51.640;9.566;2023-05-27T01:01:26;8.98;;;5.25;;
38609;SDS011;24367;51.640;9.566;2023-05-27T01:03:53;7.75;;;5.15;;
38609;SDS011;24367;51.640;9.566;2023-05-27T01:06:23;6.88;;;5.25;;
38609;SDS011;24367;51.640;9.566;2023-05-27T01:08:56;6.53;;;5.10;;
38609;SDS011;24367;51.640;9.566;2023-05-27T01:11:27;5.90;;;4.10;;
38609;SDS011;24367;51.640;9.566;2023-05-27T01:14:00;7.60;;;4.97;;
38609;SDS011;24367;51.640;9.566;2023-05-27T01:16:32;6.85;;;4.70;;
38609;SDS011;24367;51.640;9.566;2023-05-27T01:18:58;6.13;;;4.63;;
38609;SDS011;24367;51.640;9.566;2023-05-27T01:21:29;7.57;;;4.70;;
38609;SDS011;24367;51.640;9.566;2023-05-27T01:24:03;6.18;;;4.70;;
38609;SDS011;24367;51.640;9.566;2023-05-27T01:26:30;6.35;;;4.65;;
38609;SDS011;24367;51.640;9.566;2023-05-27T01:28:57;6.25;;;4.30;;
38609;SDS011;24367;51.640;9.566;2023-05-27T01:31:26;6.18;;;4.28;;
38609;SDS011;24367;51.640;9.566;2023-05-27T01:33:58;6.97;;;4.72;;
38609;SDS011;24367;51.640;9.566;2023-05-27T01:36:27;6.07;;;4.40;;
38609;SDS011;24367;51.640;9.566;2023-05-27T01:38:55;6.38;;;4.45;;
38609;SDS011;24367;51.640;9.566;2023-05-27T01:41:24;6.60;;;4.65;;
38609;SDS011;24367;51.640;9.566;2023-05-27T01:43:51;6.75;;;4.82;;
38609;SDS011;24367;51.640;9.566;2023-05-27T01:46:18;15.20;;;4.53;;
38609;SDS011;24367;51.640;9.566;2023-05-27T01:48:44;7.35;;;4.40;;
38609;SDS011;24367;51.640;9.566;2023-05-27T01:51:11;7.35;;;4.25;;
38609;SDS011;24367;51.640;9.566;2023-05-27T01:53:39;7.38;;;4.18;;
38609;SDS011;24367;51.640;9.566;2023-05-27T01:56:05;7.03;;;4.40;;
38609;SDS011;24367;51.640;9.566;2023-05-27T01:58:33;7.78;;;4.03;;
38609;SDS011;24367;51.640;9.566;2023-05-27T02:01:00;6.53;;;4.00;;
38609;SDS011;24367;51.640;9.566;2023-05-27T02:03:26;7.20;;;3.90;;
38609;SDS011;24367;51.640;9.566;2023-05-27T02:05:52;8.43;;;3.95;;
38609;SDS011;24367;51.640;9.566;2023-05-27T02:08:19;6.75;;;4.20;;
38609;SDS011;24367;51.640;9.566;2023-05-27T02:10:45;10.73;;;4.43;;
38609;SDS011;24367;51.640;9.566;2023-05-27T02:13:12;8.27;;;3.70;;
38609;SDS011;24367;51.640;9.566;2023-05-27T02:15:40;8.55;;;4.53;;
38609;SDS011;24367;51.640;9.566;2023-05-27T02:18:07;8.48;;;3.90;;
38609;SDS011;24367;51.640;9.566;2023-05-27T02:20:34;8.88;;;4.25;;
38609;SDS011;24367;51.640;9.566;2023-05-27T02:23:01;7.82;;;4.22;;
38609;SDS011;24367;51.640;9.566;2023-05-27T02:25:32;7.15;;;4.10;;
38609;SDS011;24367;51.640;9.566;2023-05-27T02:27:58;6.53;;;4.15;;
38609;SDS011;24367;51.640;9.566;2023-05-27T02:30:28;6.07;;;4.07;;
38609;SDS011;24367;51.640;9.566;2023-05-27T02:32:56;5.57;;;3.63;;
38609;SDS011;24367;51.640;9.566;2023-05-27T02:35:22;7.18;;;4.00;;
38609;SDS011;24367;51.640;9.566;2023-05-27T02:37:51;7.82;;;4.28;;
38609;SDS011;24367;51.640;9.566;2023-05-27T02:40:23;7.32;;;4.35;;
38609;SDS011;24367;51.640;9.566;2023-05-27T02:42:50;6.10;;;4.30;;
38609;SDS011;24367;51.640;9.566;2023-05-27T02:45:16;6.45;;;3.85;;
38609;SDS011;24367;51.640;9.566;2023-05-27T02:47:43;5.15;;;3.75;;
38609;SDS011;24367;51.640;9.566;2023-05-27T02:50:11;6.72;;;3.95;;
38609;SDS011;24367;51.640;9.566;2023-05-27T02:52:37;6.70;;;4.35;;
38609;SDS011;24367;51.640;9.566;2023-05-27T02:55:05;7.82;;;3.80;;
38609;SDS011;24367;51.640;9.566;2023-05-27T02:57:33;6.25;;;3.55;;
38609;SDS011;24367;51.640;9.566;2023-05-27T03:00:00;6.15;;;4.07;;
38609;SDS011;24367;51.640;9.566;2023-05-27T03:02:26;9.68;;;4.40;;
38609;SDS011;24367;51.640;9.566;2023-05-27T03:04:54;16.90;;;4.57;;
38609;SDS011;24367;51.640;9.566;2023-05-27T03:07:23;6.03;;;4.18;;
38609;SDS011;24367;51.640;9.566;2023-05-27T03:09:49;6.03;;;3.17;;
38609;SDS011;24367;51.640;9.566;2023-05-27T03:12:16;8.48;;;3.58;;
38609;SDS011;24367;51.640;9.566;2023-05-27T03:14:42;8.07;;;3.88;;
38609;SDS011;24367;51.640;9.566;2023-05-27T03:17:08;5.38;;;3.75;;
38609;SDS011;24367;51.640;9.566;2023-05-27T03:19:35;8.13;;;4.18;;
38609;SDS011;24367;51.640;9.566;2023-05-27T03:22:02;10.23;;;4.25;;
38609;SDS011;24367;51.640;9.566;2023-05-27T03:24:30;9.75;;;3.95;;
38609;SDS011;24367;51.640;9.566;2023-05-27T03:26:56;6.78;;;3.70;;
38609;SDS011;24367;51.640;9.566;2023-05-27T03:29:23;6.35;;;4.15;;
38609;SDS011;24367;51.640;9.566;2023-05-27T03:31:49;8.07;;;3.65;;
38609;SDS011;24367;51.640;9.566;2023-05-27T03:34:18;6.63;;;3.63;;
38609;SDS011;24367;51.640;9.566;2023-05-27T03:36:44;7.32;;;3.63;;
38609;SDS011;24367;51.640;9.566;2023-05-27T03:39:12;5.18;;;3.45;;
38609;SDS011;24367;51.640;9.566;2023-05-27T03:41:45;5.60;;;3.65;;
38609;SDS011;24367;51.640;9.566;2023-05-27T03:44:12;23.80;;;4.60;;
38609;SDS011;24367;51.640;9.566;2023-05-27T03:46:40;6.65;;;3.72;;
38609;SDS011;24367;51.640;9.566;2023-05-27T03:49:06;5.43;;;3.00;;
38609;SDS011;24367;51.640;9.566;2023-05-27T03:51:33;13.45;;;4.20;;
38609;SDS011;24367;51.640;9.566;2023-05-27T03:54:00;6.93;;;3.30;;
38609;SDS011;24367;51.640;9.566;2023-05-27T03:56:30;6.05;;;3.83;;
38609;SDS011;24367;51.640;9.566;2023-05-27T03:58:58;6.68;;;3.60;;
38609;SDS011;24367;51.640;9.566;2023-05-27T04:01:24;12.07;;;3.70;;
38609;SDS011;24367;51.640;9.566;2023-05-27T04:03:52;7.75;;;3.75;;
38609;SDS011;24367;51.640;9.566;2023-05-27T04:06:18;6.78;;;3.40;;
38609;SDS011;24367;51.640;9.566;2023-05-27T04:08:45;8.88;;;3.63;;
38609;SDS011;24367;51.640;9.566;2023-05-27T04:11:12;13.85;;;3.58;;
38609;SDS011;24367;51.640;9.566;2023-05-27T04:13:38;6.07;;;3.35;;
38609;SDS011;24367;51.640;9.566;2023-05-27T04:16:06;8.13;;;3.40;;
38609;SDS011;24367;51.640;9.566;2023-05-27T04:18:33;6.13;;;3.22;;
38609;SDS011;24367;51.640;9.566;2023-05-27T04:21:02;7.95;;;3.67;;
38609;SDS011;24367;51.640;9.566;2023-05-27T04:23:29;5.10;;;3.65;;
38609;SDS011;24367;51.640;9.566;2023-05-27T04:25:56;7.43;;;3.67;;
38609;SDS011;24367;51.640;9.566;2023-05-27T04:28:28;7.35;;;3.20;;
38609;SDS011;24367;51.640;9.566;2023-05-27T04:30:56;5.20;;;3.50;;
38609;SDS011;24367;51.640;9.566;2023-05-27T04:33:34;6.95;;;3.55;;
38609;SDS011;24367;51.640;9.566;2023-05-27T04:36:01;8.05;;;3.50;;
38609;SDS011;24367;51.640;9.566;2023-05-27T04:38:34;5.20;;;3.17;;
38609;SDS011;24367;51.640;9.566;2023-05-27T04:41:03;6.55;;;3.42;;
38609;SDS011;24367;51.640;9.566;2023-05-27T04:44:01;6.45;;;3.38;;
38609;SDS011;24367;51.640;9.566;2023-05-27T04:46:32;6.75;;;3.45;;
38609;SDS011;24367;51.640;9.566;2023-05-27T04:48:59;6.82;;;3.42;;
38609;SDS011;24367;51.640;9.566;2023-05-27T04:51:26;5.35;;;3.38;;
38609;SDS011;24367;51.640;9.566;2023-05-27T04:53:52;4.55;;;2.72;;
38609;SDS011;24367;51.640;9.566;2023-05-27T04:56:22;5.90;;;3.13;;
38609;SDS011;24367;51.640;9.566;2023-05-27T04:58:49;5.50;;;3.70;;
38609;SDS011;24367;51.640;9.566;2023-05-27T05:01:20;11.43;;;3.42;;
38609;SDS011;24367;51.640;9.566;2023-05-27T05:03:57;5.22;;;3.13;;
38609;SDS011;24367;51.640;9.566;2023-05-27T05:06:41;6.70;;;2.92;;
38609;SDS011;24367;51.640;9.566;2023-05-27T05:09:08;6.90;;;3.03;;
38609;SDS011;24367;51.640;9.566;2023-05-27T05:11:37;7.50;;;3.13;;
38609;SDS011;24367;51.640;9.566;2023-05-27T05:14:03;6.68;;;3.17;;
38609;SDS011;24367;51.640;9.566;2023-05-27T05:16:30;5.93;;;3.58;;
38609;SDS011;24367;51.640;9.566;2023-05-27T05:18:57;4.47;;;2.78;;
38609;SDS011;24367;51.640;9.566;2023-05-27T05:21:26;5.10;;;3.28;;
38609;SDS011;24367;51.640;9.566;2023-05-27T05:23:54;5.57;;;2.75;;
38609;SDS011;24367;51.640;9.566;2023-05-27T05:26:21;4.35;;;3.15;;
38609;SDS011;24367;51.640;9.566;2023-05-27T05:28:47;4.90;;;3.03;;
38609;SDS011;24367;51.640;9.566;2023-05-27T05:31:14;5.40;;;2.75;;
38609;SDS011;24367;51.640;9.566;2023-05-27T05:33:40;5.20;;;2.88;;
38609;SDS011;24367;51.640;9.566;2023-05-27T05:36:07;4.65;;;2.88;;
38609;SDS011;24367;51.640;9.566;2023-05-27T05:38:47;4.22;;;2.75;;
38609;SDS011;24367;51.640;9.566;2023-05-27T05:41:15;4.55;;;2.97;;
38609;SDS011;24367;51.640;9.566;2023-05-27T05:43:42;5.40;;;3.05;;
38609;SDS011;24367;51.640;9.566;2023-05-27T05:46:09;6.82;;;3.22;;
38609;SDS011;24367;51.640;9.566;2023-05-27T05:48:35;4.60;;;2.90;;
38609;SDS011;24367;51.640;9.566;2023-05-27T05:51:03;6.88;;;2.88;;
38609;SDS011;24367;51.640;9.566;2023-05-27T05:53:30;5.47;;;3.00;;
38609;SDS011;24367;51.640;9.566;2023-05-27T05:55:57;5.10;;;3.40;;
38609;SDS011;24367;51.640;9.566;2023-05-27T05:58:26;5.18;;;2.70;;
38609;SDS011;24367;51.640;9.566;2023-05-27T06:00:52;3.85;;;2.58;;
38609;SDS011;24367;51.640;9.566;2023-05-27T06:03:33;5.32;;;3.00;;
38609;SDS011;24367;51.640;9.566;2023-05-27T06:06:01;4.30;;;2.80;;
38609;SDS011;24367;51.640;9.566;2023-05-27T06:08:28;4.40;;;2.80;;
38609;SDS011;24367;51.640;9.566;2023-05-27T06:11:01;4.05;;;2.78;;
38609;SDS011;24367;51.640;9.566;2023-05-27T06:13:32;4.25;;;3.03;;
38609;SDS011;24367;51.640;9.566;2023-05-27T06:16:00;4.45;;;3.13;;
38609;SDS011;24367;51.640;9.566;2023-05-27T06:18:26;4.35;;;2.72;;
38609;SDS011;24367;51.640;9.566;2023-05-27T06:20:53;4.95;;;2.83;;
38609;SDS011;24367;51.640;9.566;2023-05-27T06:23:22;4.90;;;3.05;;
38609;SDS011;24367;51.640;9.566;2023-05-27T06:26:03;3.78;;;2.40;;
38609;SDS011;24367;51.640;9.566;2023-05-27T06:28:36;4.18;;;2.40;;
38609;SDS011;24367;51.640;9.566;2023-05-27T06:31:03;4.22;;;2.97;;
38609;SDS011;24367;51.640;9.566;2023-05-27T06:33:29;4.47;;;2.40;;
38609;SDS011;24367;51.640;9.566;2023-05-27T06:35:56;4.70;;;2.95;;
38609;SDS011;24367;51.640;9.566;2023-05-27T06:38:22;4.25;;;2.58;;
38609;SDS011;24367;51.640;9.566;2023-05-27T06:40:50;4.70;;;2.90;;
38609;SDS011;24367;51.640;9.566;2023-05-27T06:43:17;3.83;;;2.78;;
38609;SDS011;24367;51.640;9.566;2023-05-27T06:45:54;4.35;;;2.83;;
38609;SDS011;24367;51.640;9.566;2023-05-27T06:48:39;5.75;;;2.65;;
38609;SDS011;24367;51.640;9.566;2023-05-27T06:51:06;4.00;;;2.63;;
38609;SDS011;24367;51.640;9.566;2023-05-27T06:53:33;4.88;;;3.10;;
38609;SDS011;24367;51.640;9.566;2023-05-27T06:56:12;5.35;;;2.60;;
38609;SDS011;24367;51.640;9.566;2023-05-27T06:58:59;4.22;;;2.75;;
38609;SDS011;24367;51.640;9.566;2023-05-27T07:01:27;5.80;;;2.83;;
38609;SDS011;24367;51.640;9.566;2023-05-27T07:04:13;4.15;;;2.90;;
38609;SDS011;24367;51.640;9.566;2023-05-27T07:06:50;3.47;;;2.38;;
38609;SDS011;24367;51.640;9.566;2023-05-27T07:09:16;4.90;;;2.97;;
38609;SDS011;24367;51.640;9.566;2023-05-27T07:11:43;4.97;;;2.63;;
38609;SDS011;24367;51.640;9.566;2023-05-27T07:14:15;4.63;;;2.35;;
38609;SDS011;24367;51.640;9.566;2023-05-27T07:16:43;5.18;;;3.17;;
38609;SDS011;24367;51.640;9.566;2023-05-27T07:19:10;5.28;;;2.90;;
38609;SDS011;24367;51.640;9.566;2023-05-27T07:21:45;4.30;;;2.50;;
38609;SDS011;24367;51.640;9.566;2023-05-27T07:24:16;4.90;;;2.78;;
38609;SDS011;24367;51.640;9.566;2023-05-27T07:26:43;3.33;;;2.40;;
38609;SDS011;24367;51.640;9.566;2023-05-27T07:29:09;3.72;;;2.40;;
38609;SDS011;24367;51.640;9.566;2023-05-27T07:31:53;4.03;;;2.63;;
38609;SDS011;24367;51.640;9.566;2023-05-27T07:34:24;4.53;;;2.70;;
38609;SDS011;24367;51.640;9.566;2023-05-27T07:36:51;3.50;;;2.33;;
38609;SDS011;24367;51.640;9.566;2023-05-27T07:39:17;3.20;;;2.33;;
38609;SDS011;24367;51.640;9.566;2023-05-27T07:41:44;4.63;;;2.30;;
38609;SDS011;24367;51.640;9.566;2023-05-27T07:44:10;5.53;;;2.58;;
38609;SDS011;24367;51.640;9.566;2023-05-27T07:46:37;4.13;;;2.47;;
38609;SDS011;24367;51.640;9.566;2023-05-27T07:49:05;3.92;;;2.38;;
38609;SDS011;24367;51.640;9.566;2023-05-27T07:51:37;4.93;;;2.65;;
38609;SDS011;24367;51.640;9.566;2023-05-27T07:54:03;4.20;;;2.22;;
38609;SDS011;24367;51.640;9.566;2023-05-27T07:56:30;4.78;;;2.55;;
38609;SDS011;24367;51.640;9.566;2023-05-27T07:58:56;4.97;;;2.58;;
38609;SDS011;24367;51.640;9.566;2023-05-27T08:01:23;3.97;;;2.60;;
38609;SDS011;24367;51.640;9.566;2023-05-27T08:03:55;3.88;;;2.50;;
38609;SDS011;24367;51.640;9.566;2023-05-27T08:06:32;6.95;;;3.15;;
38609;SDS011;24367;51.640;9.566;2023-05-27T08:09:05;3.55;;;2.20;;
38609;SDS011;24367;51.640;9.566;2023-05-27T08:11:51;3.67;;;2.53;;
38609;SDS011;24367;51.640;9.566;2023-05-27T08:14:23;3.28;;;2.28;;
38609;SDS011;24367;51.640;9.566;2023-05-27T08:17:13;3.08;;;2.10;;
38609;SDS011;24367;51.640;9.566;2023-05-27T08:19:56;4.13;;;2.70;;
38609;SDS011;24367;51.640;9.566;2023-05-27T08:22:35;4.78;;;2.17;;
38609;SDS011;24367;51.640;9.566;2023-05-27T08:25:22;3.97;;;2.75;;
38609;SDS011;24367;51.640;9.566;2023-05-27T08:28:08;3.90;;;2.33;;
38609;SDS011;24367;51.640;9.566;2023-05-27T08:30:55;3.78;;;2.50;;
38609;SDS011;24367;51.640;9.566;2023-05-27T08:33:34;5.65;;;2.47;;
38609;SDS011;24367;51.640;9.566;2023-05-27T08:36:02;4.57;;;2.60;;
38609;SDS011;24367;51.640;9.566;2023-05-27T08:38:30;5.65;;;2.60;;
38609;SDS011;24367;51.640;9.566;2023-05-27T08:41:11;4.53;;;2.70;;
38609;SDS011;24367;51.640;9.566;2023-05-27T08:43:37;6.90;;;2.95;;
38609;SDS011;24367;51.640;9.566;2023-05-27T08:46:04;5.07;;;2.63;;
38609;SDS011;24367;51.640;9.566;2023-05-27T08:48:30;4.32;;;2.50;;
38609;SDS011;24367;51.640;9.566;2023-05-27T08:50:57;3.50;;;2.30;;
38609;SDS011;24367;51.640;9.566;2023-05-27T08:53:24;5.60;;;2.28;;
38609;SDS011;24367;51.640;9.566;2023-05-27T08:55:53;5.03;;;2.42;;
38609;SDS011;24367;51.640;9.566;2023-05-27T08:58:21;4.38;;;2.75;;
38609;SDS011;24367;51.640;9.566;2023-05-27T09:00:51;5.05;;;2.13;;
38609;SDS011;24367;51.640;9.566;2023-05-27T09:03:19;3.00;;;2.10;;
38609;SDS011;24367;51.640;9.566;2023-05-27T09:05:47;4.93;;;2.22;;
38609;SDS011;24367;51.640;9.566;2023-05-27T09:08:14;10.05;;;2.65;;
38609;SDS011;24367;51.640;9.566;2023-05-27T09:10:41;3.25;;;1.83;;
38609;SDS011;24367;51.640;9.566;2023-05-27T09:13:09;6.97;;;2.78;;
38609;SDS011;24367;51.640;9.566;2023-05-27T09:15:35;9.50;;;2.67;;
38609;SDS011;24367;51.640;9.566;2023-05-27T09:18:04;5.50;;;2.28;;
38609;SDS011;24367;51.640;9.566;2023-05-27T09:20:30;10.02;;;2.67;;
38609;SDS011;24367;51.640;9.566;2023-05-27T09:22:57;15.73;;;3.40;;
38609;SDS011;24367;51.640;9.566;2023-05-27T09:25:24;9.65;;;2.70;;
38609;SDS011;24367;51.640;9.566;2023-05-27T09:27:50;8.77;;;2.80;;
38609;SDS011;24367;51.640;9.566;2023-05-27T09:30:19;13.18;;;2.88;;
38609;SDS011;24367;51.640;9.566;2023-05-27T09:32:46;5.47;;;2.35;;
38609;SDS011;24367;51.640;9.566;2023-05-27T09:35:14;14.23;;;3.10;;
38609;SDS011;24367;51.640;9.566;2023-05-27T09:37:41;5.80;;;2.47;;
38609;SDS011;24367;51.640;9.566;2023-05-27T09:40:10;7.78;;;2.30;;
38609;SDS011;24367;51.640;9.566;2023-05-27T09:42:39;7.60;;;2.75;;
38609;SDS011;24367;51.640;9.566;2023-05-27T09:45:07;5.22;;;2.38;;
38609;SDS011;24367;51.640;9.566;2023-05-27T09:47:38;12.05;;;2.58;;
38609;SDS011;24367;51.640;9.566;2023-05-27T09:50:06;8.15;;;2.38;;
38609;SDS011;24367;51.640;9.566;2023-05-27T09:52:34;9.38;;;2.83;;
38609;SDS011;24367;51.640;9.566;2023-05-27T09:55:01;10.20;;;2.53;;
38609;SDS011;24367;51.640;9.566;2023-05-27T09:57:28;8.15;;;2.53;;
38609;SDS011;24367;51.640;9.566;2023-05-27T09:59:55;5.85;;;2.55;;
38609;SDS011;24367;51.640;9.566;2023-05-27T10:02:21;7.75;;;2.53;;
38609;SDS011;24367;51.640;9.566;2023-05-27T10:04:50;7.18;;;2.25;;
38609;SDS011;24367;51.640;9.566;2023-05-27T10:07:16;6.68;;;2.65;;
38609;SDS011;24367;51.640;9.566;2023-05-27T10:09:45;5.30;;;2.20;;
38609;SDS011;24367;51.640;9.566;2023-05-27T10:12:12;5.45;;;1.92;;
38609;SDS011;24367;51.640;9.566;2023-05-27T10:14:41;5.22;;;2.38;;
38609;SDS011;24367;51.640;9.566;2023-05-27T10:17:09;6.88;;;2.33;;
38609;SDS011;24367;51.640;9.566;2023-05-27T10:19:36;5.20;;;2.13;;
38609;SDS011;24367;51.640;9.566;2023-05-27T10:22:10;7.95;;;2.58;;
38609;SDS011;24367;51.640;9.566;2023-05-27T10:24:36;5.15;;;2.40;;
38609;SDS011;24367;51.640;9.566;2023-05-27T10:27:05;4.43;;;2.00;;
38609;SDS011;24367;51.640;9.566;2023-05-27T10:29:35;20.02;;;2.95;;
38609;SDS011;24367;51.640;9.566;2023-05-27T10:32:02;6.78;;;2.92;;
38609;SDS011;24367;51.640;9.566;2023-05-27T10:34:34;11.30;;;2.45;;
38609;SDS011;24367;51.640;9.566;2023-05-27T10:37:01;5.55;;;2.15;;
38609;SDS011;24367;51.640;9.566;2023-05-27T10:39:29;10.68;;;2.58;;
38609;SDS011;24367;51.640;9.566;2023-05-27T10:41:56;9.35;;;2.70;;
38609;SDS011;24367;51.640;9.566;2023-05-27T10:44:25;10.20;;;2.30;;
38609;SDS011;24367;51.640;9.566;2023-05-27T10:46:58;9.27;;;2.22;;
38609;SDS011;24367;51.640;9.566;2023-05-27T10:49:25;7.88;;;2.40;;
38609;SDS011;24367;51.640;9.566;2023-05-27T10:51:52;6.63;;;2.40;;
38609;SDS011;24367;51.640;9.566;2023-05-27T10:54:19;6.05;;;2.40;;
38609;SDS011;24367;51.640;9.566;2023-05-27T10:56:51;5.70;;;2.25;;
38609;SDS011;24367;51.640;9.566;2023-05-27T10:59:19;6.35;;;2.30;;
38609;SDS011;24367;51.640;9.566;2023-05-27T11:01:46;4.05;;;2.28;;
38609;SDS011;24367;51.640;9.566;2023-05-27T11:04:14;5.22;;;2.10;;
38609;SDS011;24367;51.640;9.566;2023-05-27T11:06:40;7.32;;;2.38;;
38609;SDS011;24367;51.640;9.566;2023-05-27T11:09:07;6.38;;;2.47;;
38609;SDS011;24367;51.640;9.566;2023-05-27T11:11:34;14.30;;;3.15;;
38609;SDS011;24367;51.640;9.566;2023-05-27T11:14:03;13.60;;;2.55;;
38609;SDS011;24367;51.640;9.566;2023-05-27T11:16:29;8.95;;;2.42;;
38609;SDS011;24367;51.640;9.566;2023-05-27T11:18:55;13.35;;;2.50;;
38609;SDS011;24367;51.640;9.566;2023-05-27T11:21:23;9.27;;;2.22;;
38609;SDS011;24367;51.640;9.566;2023-05-27T11:23:49;8.25;;;2.88;;
38609;SDS011;24367;51.640;9.566;2023-05-27T11:26:16;9.13;;;2.42;;
38609;SDS011;24367;51.640;9.566;2023-05-27T11:28:47;9.57;;;2.85;;
38609;SDS011;24367;51.640;9.566;2023-05-27T11:31:16;4.82;;;2.05;;
38609;SDS011;24367;51.640;9.566;2023-05-27T11:33:46;7.18;;;2.40;;
38609;SDS011;24367;51.640;9.566;2023-05-27T11:36:13;5.40;;;2.15;;
38609;SDS011;24367;51.640;9.566;2023-05-27T11:38:51;4.93;;;2.20;;
38609;SDS011;24367;51.640;9.566;2023-05-27T11:41:19;4.95;;;2.50;;
38609;SDS011;24367;51.640;9.566;2023-05-27T11:43:47;26.95;;;2.75;;
38609;SDS011;24367;51.640;9.566;2023-05-27T11:46:14;7.53;;;2.67;;
38609;SDS011;24367;51.640;9.566;2023-05-27T11:48:42;5.90;;;2.83;;
38609;SDS011;24367;51.640;9.566;2023-05-27T11:51:09;6.57;;;2.22;;
38609;SDS011;24367;51.640;9.566;2023-05-27T11:53:38;11.63;;;2.40;;
38609;SDS011;24367;51.640;9.566;2023-05-27T11:56:04;6.90;;;2.38;;
38609;SDS011;24367;51.640;9.566;2023-05-27T11:58:31;9.50;;;2.65;;
38609;SDS011;24367;51.640;9.566;2023-05-27T12:00:58;9.52;;;2.42;;
38609;SDS011;24367;51.640;9.566;2023-05-27T12:03:25;6.55;;;2.30;;
38609;SDS011;24367;51.640;9.566;2023-05-27T12:05:53;9.60;;;2.33;;
38609;SDS011;24367;51.640;9.566;2023-05-27T12:08:19;11.98;;;2.65;;
38609;SDS011;24367;51.640;9.566;2023-05-27T12:10:46;8.65;;;2.50;;
38609;SDS011;24367;51.640;9.566;2023-05-27T12:13:15;7.60;;;2.40;;
38609;SDS011;24367;51.640;9.566;2023-05-27T12:15:41;9.55;;;2.47;;
38609;SDS011;24367;51.640;9.566;2023-05-27T12:18:08;4.60;;;2.38;;
38609;SDS011;24367;51.640;9.566;2023-05-27T12:20:35;8.48;;;2.35;;
38609;SDS011;24367;51.640;9.566;2023-05-27T12:23:02;7.30;;;2.30;;
38609;SDS011;24367;51.640;9.566;2023-05-27T12:25:29;6.15;;;2.28;;
38609;SDS011;24367;51.640;9.566;2023-05-27T12:27:55;5.60;;;1.95;;
38609;SDS011;24367;51.640;9.566;2023-05-27T12:30:22;15.02;;;2.35;;
38609;SDS011;24367;51.640;9.566;2023-05-27T12:32:49;6.88;;;2.20;;
38609;SDS011;24367;51.640;9.566;2023-05-27T12:35:15;6.60;;;2.35;;
38609;SDS011;24367;51.640;9.566;2023-05-27T12:37:41;7.90;;;2.40;;
38609;SDS011;24367;51.640;9.566;2023-05-27T12:40:10;5.20;;;2.20;;
38609;SDS011;24367;51.640;9.566;2023-05-27T12:42:39;5.43;;;2.05;;
38609;SDS011;24367;51.640;9.566;2023-05-27T12:45:06;6.35;;;2.70;;
38609;SDS011;24367;51.640;9.566;2023-05-27T12:47:35;10.40;;;2.08;;
38609;SDS011;24367;51.640;9.566;2023-05-27T12:50:02;4.25;;;2.05;;
38609;SDS011;24367;51.640;9.566;2023-05-27T12:52:29;5.95;;;2.10;;
38609;SDS011;24367;51.640;9.566;2023-05-27T12:54:55;7.30;;;2.30;;
38609;SDS011;24367;51.640;9.566;2023-05-27T12:57:23;7.10;;;1.95;;
38609;SDS011;24367;51.640;9.566;2023-05-27T12:59:50;9.18;;;2.38;;
38609;SDS011;24367;51.640;9.566;2023-05-27T13:02:17;8.75;;;2.20;;
38609;SDS011;24367;51.640;9.566;2023-05-27T13:04:43;5.25;;;2.10;;
38609;SDS011;24367;51.640;9.566;2023-05-27T13:07:12;4.65;;;1.92;;
38609;SDS011;24367;51.640;9.566;2023-05-27T13:09:39;6.82;;;2.05;;
38609;SDS011;24367;51.640;9.566;2023-05-27T13:12:06;4.05;;;1.90;;
38609;SDS011;24367;51.640;9.566;2023-05-27T13:14:34;9.23;;;2.00;;
38609;SDS011;24367;51.640;9.566;2023-05-27T13:17:01;5.97;;;2.30;;
38609;SDS011;24367;51.640;9.566;2023-05-27T13:19:27;4.13;;;2.15;;
38609;SDS011;24367;51.640;9.566;2023-05-27T13:21:54;4.82;;;2.10;;
38609;SDS011;24367;51.640;9.566;2023-05-27T13:24:20;5.05;;;1.98;;
38609;SDS011;24367;51.640;9.566;2023-05-27T13:26:47;4.13;;;2.15;;
38609;SDS011;24367;51.640;9.566;2023-05-27T13:29:13;5.50;;;2.08;;
38609;SDS011;24367;51.640;9.566;2023-05-27T13:31:41;6.78;;;2.13;;
38609;SDS011;24367;51.640;9.566;2023-05-27T13:34:07;4.45;;;2.05;;
38609;SDS011;24367;51.640;9.566;2023-05-27T13:36:33;4.13;;;1.67;;
38609;SDS011;24367;51.640;9.566;2023-05-27T13:39:00;4.85;;;1.95;;
38609;SDS011;24367;51.640;9.566;2023-05-27T13:41:26;6.60;;;1.90;;
38609;SDS011;24367;51.640;9.566;2023-05-27T13:43:53;8.43;;;2.20;;
38609;SDS011;24367;51.640;9.566;2023-05-27T13:46:19;7.28;;;2.60;;
38609;SDS011;24367;51.640;9.566;2023-05-27T13:48:47;7.53;;;2.90;;
38609;SDS011;24367;51.640;9.566;2023-05-27T13:51:13;7.28;;;3.10;;
38609;SDS011;24367;51.640;9.566;2023-05-27T13:53:40;5.03;;;2.65;;
38609;SDS011;24367;51.640;9.566;2023-05-27T13:56:07;7.13;;;2.83;;
38609;SDS011;24367;51.640;9.566;2023-05-27T13:58:33;7.90;;;2.90;;
38609;SDS011;24367;51.640;9.566;2023-05-27T14:00:59;5.70;;;3.38;;
38609;SDS011;24367;51.640;9.566;2023-05-27T14:03:26;6.40;;;3.17;;
38609;SDS011;24367;51.640;9.566;2023-05-27T14:05:54;9.43;;;3.08;;
38609;SDS011;24367;51.640;9.566;2023-05-27T14:08:20;8.80;;;3.35;;
38609;SDS011;24367;51.640;9.566;2023-05-27T14:10:47;6.40;;;3.30;;
38609;SDS011;24367;51.640;9.566;2023-05-27T14:13:13;8.18;;;3.55;;
38609;SDS011;24367;51.640;9.566;2023-05-27T14:15:40;8.40;;;3.17;;
38609;SDS011;24367;51.640;9.566;2023-05-27T14:18:07;7.78;;;3.33;;
38609;SDS011;24367;51.640;9.566;2023-05-27T14:20:33;6.90;;;3.75;;
38609;SDS011;24367;51.640;9.566;2023-05-27T14:23:01;11.00;;;3.00;;
38609;SDS011;24367;51.640;9.566;2023-05-27T14:25:29;5.85;;;3.00;;
38609;SDS011;24367;51.640;9.566;2023-05-27T14:27:56;7.50;;;3.67;;
38609;SDS011;24367;51.640;9.566;2023-05-27T14:30:26;6.10;;;3.13;;
38609;SDS011;24367;51.640;9.566;2023-05-27T14:32:52;10.05;;;3.42;;
38609;SDS011;24367;51.640;9.566;2023-05-27T14:35:19;12.20;;;4.15;;
38609;SDS011;24367;51.640;9.566;2023-05-27T14:37:45;9.00;;;3.65;;
38609;SDS011;24367;51.640;9.566;2023-05-27T14:40:13;16.13;;;3.88;;
38609;SDS011;24367;51.640;9.566;2023-05-27T14:42:39;10.23;;;3.75;;
38609;SDS011;24367;51.640;9.566;2023-05-27T14:45:06;8.18;;;3.55;;
38609;SDS011;24367;51.640;9.566;2023-05-27T14:47:33;6.15;;;3.30;;
38609;SDS011;24367;51.640;9.566;2023-05-27T14:49:59;18.25;;;4.13;;
38609;SDS011;24367;51.640;9.566;2023-05-27T14:52:26;12.43;;;4.13;;